Terminal Aerodrome Forecast
Issued by NWS Hastings, NE

Home | Current Version | Previous Version | Text Only | Print | Product List | Glossary On
Versions: 1 2 3 4 5 6 7 8 9 10 11 12 13 14 15 16 17 18 19 20 21 22 23 24 25 26 27 28 29 30 31 32 33 34 35 36 37 38 39
000
FTUS43 KGID 290535
TAFGRI
TAF
KGRI 290535Z 2906/3006 03006KT P6SM BKN025
     FM291000 04007KT P6SM VCSH OVC025
     FM291300 04011KT P6SM VCSH OVC015
     FM291800 06012KT P6SM -SHRA OVC015
     FM300000 04017G24KT P6SM -SHRA OVC010
     FM300500 06019G27KT 3SM -SHRA OVC003=

USA.gov is the U.S. government's official web portal to all federal, state and local government web resources and services.